sensor_id;sensor_type;location;lat;lon;timestamp;pressure;altitude;pressure_sealevel;temperature;humidity
71976;BME280;68326;52.124;5.424;2023-05-21T00:00:17;101985.34;;;15.52;67.68
71976;BME280;68326;52.124;5.424;2023-05-21T00:02:43;101987.19;;;15.50;66.99
71976;BME280;68326;52.124;5.424;2023-05-21T00:05:10;101984.50;;;15.52;67.21
71976;BME280;68326;52.124;5.424;2023-05-21T00:07:40;101972.47;;;15.47;67.59
71976;BME280;68326;52.124;5.424;2023-05-21T00:10:07;101980.25;;;15.49;67.56
71976;BME280;68326;52.124;5.424;2023-05-21T00:12:33;101975.19;;;15.46;67.13
71976;BME280;68326;52.124;5.424;2023-05-21T00:15:00;101974.47;;;15.42;67.10
71976;BME280;68326;52.124;5.424;2023-05-21T00:17:27;101977.22;;;15.41;66.86
71976;BME280;68326;52.124;5.424;2023-05-21T00:19:54;101983.22;;;15.43;67.40
71976;BME280;68326;52.124;5.424;2023-05-21T00:22:22;101977.03;;;15.44;68.36
71976;BME280;68326;52.124;5.424;2023-05-21T00:24:49;101969.34;;;15.41;67.88
71976;BME280;68326;52.124;5.424;2023-05-21T00:27:15;101976.25;;;15.42;67.38
71976;BME280;68326;52.124;5.424;2023-05-21T00:29:42;101972.88;;;15.40;68.07
71976;BME280;68326;52.124;5.424;2023-05-21T00:32:09;101965.00;;;15.40;68.52
71976;BME280;68326;52.124;5.424;2023-05-21T00:34:36;101959.00;;;15.38;67.61
71976;BME280;68326;52.124;5.424;2023-05-21T00:37:03;101964.41;;;15.35;68.25
71976;BME280;68326;52.124;5.424;2023-05-21T00:39:30;101962.56;;;15.37;68.34
71976;BME280;68326;52.124;5.424;2023-05-21T00:41:56;101959.00;;;15.38;69.26
71976;BME280;68326;52.124;5.424;2023-05-21T00:44:23;101955.59;;;15.36;68.39
71976;BME280;68326;52.124;5.424;2023-05-21T00:46:51;101950.44;;;15.34;69.29
71976;BME280;68326;52.124;5.424;2023-05-21T00:49:21;101955.66;;;15.34;68.34
71976;BME280;68326;52.124;5.424;2023-05-21T00:51:49;101950.34;;;15.36;69.19
71976;BME280;68326;52.124;5.424;2023-05-21T00:54:17;101950.44;;;15.34;69.53
71976;BME280;68326;52.124;5.424;2023-05-21T00:56:44;101947.91;;;15.33;69.16
71976;BME280;68326;52.124;5.424;2023-05-21T00:59:13;101942.13;;;15.26;69.06
71976;BME280;68326;52.124;5.424;2023-05-21T01:01:42;101943.81;;;15.27;69.08
71976;BME280;68326;52.124;5.424;2023-05-21T01:04:11;101947.47;;;15.24;69.33
71976;BME280;68326;52.124;5.424;2023-05-21T01:06:38;101941.38;;;15.24;69.74
71976;BME280;68326;52.124;5.424;2023-05-21T01:09:04;101939.66;;;15.23;69.93
71976;BME280;68326;52.124;5.424;2023-05-21T01:11:52;101936.13;;;15.24;68.79
71976;BME280;68326;52.124;5.424;2023-05-21T01:14:21;101934.50;;;15.21;70.03
71976;BME280;68326;52.124;5.424;2023-05-21T01:16:49;101938.13;;;15.19;69.70
71976;BME280;68326;52.124;5.424;2023-05-21T01:19:19;101942.28;;;15.23;69.38
71976;BME280;68326;52.124;5.424;2023-05-21T01:21:52;101929.94;;;15.25;70.27
71976;BME280;68326;52.124;5.424;2023-05-21T01:24:21;101925.84;;;15.19;70.27
71976;BME280;68326;52.124;5.424;2023-05-21T01:26:48;101931.28;;;15.16;70.56
71976;BME280;68326;52.124;5.424;2023-05-21T01:29:14;101932.22;;;15.15;70.17
71976;BME280;68326;52.124;5.424;2023-05-21T01:31:50;101930.25;;;15.19;70.97
71976;BME280;68326;52.124;5.424;2023-05-21T01:34:20;101924.41;;;15.14;70.70
71976;BME280;68326;52.124;5.424;2023-05-21T01:36:54;101920.97;;;15.13;70.36
71976;BME280;68326;52.124;5.424;2023-05-21T01:39:35;101929.03;;;15.08;70.73
71976;BME280;68326;52.124;5.424;2023-05-21T01:42:05;101924.88;;;15.04;70.98
71976;BME280;68326;52.124;5.424;2023-05-21T01:44:34;101928.44;;;15.03;70.93
71976;BME280;68326;52.124;5.424;2023-05-21T01:47:02;101922.44;;;15.01;70.79
71976;BME280;68326;52.124;5.424;2023-05-21T01:49:29;101922.44;;;15.01;70.93
71976;BME280;68326;52.124;5.424;2023-05-21T01:51:56;101923.38;;;15.00;71.08
71976;BME280;68326;52.124;5.424;2023-05-21T01:54:22;101924.28;;;14.99;71.36
71976;BME280;68326;52.124;5.424;2023-05-21T01:56:49;101920.97;;;14.96;71.89
71976;BME280;68326;52.124;5.424;2023-05-21T01:59:16;101916.66;;;14.95;71.51
71976;BME280;68326;52.124;5.424;2023-05-21T02:01:42;101923.59;;;14.96;71.02
71976;BME280;68326;52.124;5.424;2023-05-21T02:04:09;101928.16;;;14.92;71.97
71976;BME280;68326;52.124;5.424;2023-05-21T02:06:35;101921.13;;;14.93;72.26
71976;BME280;68326;52.124;5.424;2023-05-21T02:09:04;101917.75;;;14.91;71.25
71976;BME280;68326;52.124;5.424;2023-05-21T02:11:31;101912.56;;;14.89;71.74
71976;BME280;68326;52.124;5.424;2023-05-21T02:13:57;101916.13;;;14.88;73.28
71976;BME280;68326;52.124;5.424;2023-05-21T02:16:24;101916.03;;;14.89;72.68
71976;BME280;68326;52.124;5.424;2023-05-21T02:18:50;101917.97;;;14.86;72.26
71976;BME280;68326;52.124;5.424;2023-05-21T02:21:18;101916.38;;;14.83;73.29
71976;BME280;68326;52.124;5.424;2023-05-21T02:23:46;101909.34;;;14.84;72.62
71976;BME280;68326;52.124;5.424;2023-05-21T02:26:12;101898.88;;;14.84;73.40
71976;BME280;68326;52.124;5.424;2023-05-21T02:28:38;101908.50;;;14.83;73.54
71976;BME280;68326;52.124;5.424;2023-05-21T02:31:05;101918.22;;;14.81;73.53
71976;BME280;68326;52.124;5.424;2023-05-21T02:33:32;101912.13;;;14.81;74.08
71976;BME280;68326;52.124;5.424;2023-05-21T02:35:58;101915.75;;;14.78;74.11
71976;BME280;68326;52.124;5.424;2023-05-21T02:38:25;101918.28;;;14.80;73.94
71976;BME280;68326;52.124;5.424;2023-05-21T02:40:51;101920.84;;;14.81;73.94
71976;BME280;68326;52.124;5.424;2023-05-21T02:43:18;101912.28;;;14.78;74.37
71976;BME280;68326;52.124;5.424;2023-05-21T02:45:45;101915.91;;;14.75;74.23
71976;BME280;68326;52.124;5.424;2023-05-21T02:48:11;101918.59;;;14.74;74.26
71976;BME280;68326;52.124;5.424;2023-05-21T02:50:38;101907.28;;;14.73;74.36
71976;BME280;68326;52.124;5.424;2023-05-21T02:53:05;101915.28;;;14.70;74.30
71976;BME280;68326;52.124;5.424;2023-05-21T02:55:31;101910.16;;;14.68;74.72
71976;BME280;68326;52.124;5.424;2023-05-21T02:57:58;101910.97;;;14.69;74.47
71976;BME280;68326;52.124;5.424;2023-05-21T03:00:24;101912.66;;;14.70;74.98
71976;BME280;68326;52.124;5.424;2023-05-21T03:02:51;101906.66;;;14.68;75.60
71976;BME280;68326;52.124;5.424;2023-05-21T03:05:18;101911.06;;;14.67;75.65
71976;BME280;68326;52.124;5.424;2023-05-21T03:07:44;101913.75;;;14.66;76.67
71976;BME280;68326;52.124;5.424;2023-05-21T03:10:11;101906.97;;;14.62;76.67
71976;BME280;68326;52.124;5.424;2023-05-21T03:12:37;101900.81;;;14.63;76.01
71976;BME280;68326;52.124;5.424;2023-05-21T03:15:04;101899.88;;;14.64;76.77
71976;BME280;68326;52.124;5.424;2023-05-21T03:17:31;101905.97;;;14.64;76.39
71976;BME280;68326;52.124;5.424;2023-05-21T03:19:57;101909.50;;;14.63;76.13
71976;BME280;68326;52.124;5.424;2023-05-21T03:22:24;101908.72;;;14.61;76.71
71976;BME280;68326;52.124;5.424;2023-05-21T03:24:50;101902.72;;;14.59;76.64
71976;BME280;68326;52.124;5.424;2023-05-21T03:27:18;101902.72;;;14.59;77.16
71976;BME280;68326;52.124;5.424;2023-05-21T03:29:45;101900.09;;;14.59;76.43
71976;BME280;68326;52.124;5.424;2023-05-21T03:32:11;101897.41;;;14.61;76.47
71976;BME280;68326;52.124;5.424;2023-05-21T03:34:38;101900.81;;;14.63;76.26
71976;BME280;68326;52.124;5.424;2023-05-21T03:37:05;101894.03;;;14.59;76.65
71976;BME280;68326;52.124;5.424;2023-05-21T03:39:31;101894.72;;;14.62;76.60
71976;BME280;68326;52.124;5.424;2023-05-21T03:41:58;101891.09;;;14.65;77.32
71976;BME280;68326;52.124;5.424;2023-05-21T03:44:24;101890.16;;;14.66;77.33
71976;BME280;68326;52.124;5.424;2023-05-21T03:46:51;101896.34;;;14.65;77.15
71976;BME280;68326;52.124;5.424;2023-05-21T03:49:19;101891.03;;;14.66;77.69
71976;BME280;68326;52.124;5.424;2023-05-21T03:51:45;101890.47;;;14.60;78.54
71976;BME280;68326;52.124;5.424;2023-05-21T03:54:12;101885.22;;;14.60;77.71
71976;BME280;68326;52.124;5.424;2023-05-21T03:56:38;101883.72;;;14.56;78.51
71976;BME280;68326;52.124;5.424;2023-05-21T03:59:05;101881.97;;;14.55;78.12
71976;BME280;68326;52.124;5.424;2023-05-21T04:01:31;101892.25;;;14.59;77.78
71976;BME280;68326;52.124;5.424;2023-05-21T04:03:58;101895.56;;;14.63;78.79
71976;BME280;68326;52.124;5.424;2023-05-21T04:06:25;101881.53;;;14.64;78.08
71976;BME280;68326;52.124;5.424;2023-05-21T04:08:51;101886.94;;;14.61;80.07
71976;BME280;68326;52.124;5.424;2023-05-21T04:11:18;101888.63;;;14.62;79.24
71976;BME280;68326;52.124;5.424;2023-05-21T04:13:45;101889.50;;;14.62;79.29
71976;BME280;68326;52.124;5.424;2023-05-21T04:16:13;101888.63;;;14.62;79.66
71976;BME280;68326;52.124;5.424;2023-05-21T04:18:45;101887.78;;;14.61;80.11
71976;BME280;68326;52.124;5.424;2023-05-21T04:21:12;101887.78;;;14.61;80.48
71976;BME280;68326;52.124;5.424;2023-05-21T04:23:38;101887.84;;;14.60;80.60
71976;BME280;68326;52.124;5.424;2023-05-21T04:26:05;101882.59;;;14.60;80.47
71976;BME280;68326;52.124;5.424;2023-05-21T04:28:33;101886.94;;;14.61;80.14
71976;BME280;68326;52.124;5.424;2023-05-21T04:31:00;101894.81;;;14.61;80.28
71976;BME280;68326;52.124;5.424;2023-05-21T04:33:27;101886.09;;;14.60;79.91
71976;BME280;68326;52.124;5.424;2023-05-21T04:35:54;101895.56;;;14.63;80.75
71976;BME280;68326;52.124;5.424;2023-05-21T04:38:20;101898.19;;;14.63;80.64
71976;BME280;68326;52.124;5.424;2023-05-21T04:40:48;101894.03;;;14.59;80.78
71976;BME280;68326;52.124;5.424;2023-05-21T04:43:19;101902.59;;;14.62;80.68
71976;BME280;68326;52.124;5.424;2023-05-21T04:45:52;101900.88;;;14.61;81.33
71976;BME280;68326;52.124;5.424;2023-05-21T04:48:23;101897.19;;;14.65;80.59
71976;BME280;68326;52.124;5.424;2023-05-21T04:50:52;101895.34;;;14.67;80.81
71976;BME280;68326;52.124;5.424;2023-05-21T04:53:22;101899.03;;;14.63;80.83
71976;BME280;68326;52.124;5.424;2023-05-21T04:55:49;101903.56;;;14.60;80.37
71976;BME280;68326;52.124;5.424;2023-05-21T04:58:15;101901.72;;;14.62;81.05
71976;BME280;68326;52.124;5.424;2023-05-21T05:00:45;101899.34;;;14.57;80.61
71976;BME280;68326;52.124;5.424;2023-05-21T05:03:12;101902.50;;;14.64;81.39
71976;BME280;68326;52.124;5.424;2023-05-21T05:05:39;101904.91;;;14.68;81.88
71976;BME280;68326;52.124;5.424;2023-05-21T05:08:06;101904.81;;;14.70;81.42
71976;BME280;68326;52.124;5.424;2023-05-21T05:10:32;101904.72;;;14.72;81.16
71976;BME280;68326;52.124;5.424;2023-05-21T05:12:59;101905.75;;;14.69;81.19
71976;BME280;68326;52.124;5.424;2023-05-21T05:15:26;101912.59;;;14.72;81.80
71976;BME280;68326;52.124;5.424;2023-05-21T05:17:52;101905.56;;;14.72;81.50
71976;BME280;68326;52.124;5.424;2023-05-21T05:20:19;101902.13;;;14.72;81.02
71976;BME280;68326;52.124;5.424;2023-05-21T05:22:46;101902.13;;;14.72;81.26
71976;BME280;68326;52.124;5.424;2023-05-21T05:25:12;101902.03;;;14.73;81.21
71976;BME280;68326;52.124;5.424;2023-05-21T05:27:39;101895.94;;;14.73;81.60
71976;BME280;68326;52.124;5.424;2023-05-21T05:30:06;101900.03;;;14.78;81.95
71976;BME280;68326;52.124;5.424;2023-05-21T05:32:33;101903.47;;;14.79;81.92
71976;BME280;68326;52.124;5.424;2023-05-21T05:34:59;101898.34;;;14.77;81.67
71976;BME280;68326;52.124;5.424;2023-05-21T05:37:27;101898.16;;;14.80;81.37
71976;BME280;68326;52.124;5.424;2023-05-21T05:39:54;101906.88;;;14.81;81.79
71976;BME280;68326;52.124;5.424;2023-05-21T05:42:21;101898.94;;;14.82;81.46
71976;BME280;68326;52.124;5.424;2023-05-21T05:44:47;101895.31;;;14.85;81.61
71976;BME280;68326;52.124;5.424;2023-05-21T05:47:15;101897.16;;;14.83;80.87
71976;BME280;68326;52.124;5.424;2023-05-21T05:49:41;101904.19;;;14.82;81.46
71976;BME280;68326;52.124;5.424;2023-05-21T05:52:08;101902.41;;;14.83;81.93
71976;BME280;68326;52.124;5.424;2023-05-21T05:54:34;101903.28;;;14.83;81.75
71976;BME280;68326;52.124;5.424;2023-05-21T05:57:01;101904.13;;;14.84;81.51
71976;BME280;68326;52.124;5.424;2023-05-21T05:59:27;101897.03;;;14.86;81.23
71976;BME280;68326;52.124;5.424;2023-05-21T06:01:54;101892.56;;;14.88;81.41
71976;BME280;68326;52.124;5.424;2023-05-21T06:04:20;101894.28;;;14.87;81.88
71976;BME280;68326;52.124;5.424;2023-05-21T06:06:47;101893.22;;;14.92;81.27
71976;BME280;68326;52.124;5.424;2023-05-21T06:09:13;101884.97;;;14.99;81.36
71976;BME280;68326;52.124;5.424;2023-05-21T06:11:40;101887.34;;;15.04;80.84
71976;BME280;68326;52.124;5.424;2023-05-21T06:14:06;101882.53;;;15.12;80.59
71976;BME280;68326;52.124;5.424;2023-05-21T06:16:33;101889.16;;;15.19;80.35
71976;BME280;68326;52.124;5.424;2023-05-21T06:19:00;101885.59;;;15.20;80.31
71976;BME280;68326;52.124;5.424;2023-05-21T06:21:26;101890.34;;;15.29;79.67
71976;BME280;68326;52.124;5.424;2023-05-21T06:23:53;101883.63;;;15.41;80.22
71976;BME280;68326;52.124;5.424;2023-05-21T06:26:19;101883.34;;;15.62;79.84
71976;BME280;68326;52.124;5.424;2023-05-21T06:28:47;101892.13;;;15.78;78.01
71976;BME280;68326;52.124;5.424;2023-05-21T06:31:13;101889.16;;;15.84;78.57
71976;BME280;68326;52.124;5.424;2023-05-21T06:33:40;101883.63;;;15.89;78.26
71976;BME280;68326;52.124;5.424;2023-05-21T06:36:07;101881.13;;;15.87;77.92
71976;BME280;68326;52.124;5.424;2023-05-21T06:38:34;101879.16;;;15.91;77.61
71976;BME280;68326;52.124;5.424;2023-05-21T06:41:01;101887.22;;;15.88;77.02
71976;BME280;68326;52.124;5.424;2023-05-21T06:43:29;101883.81;;;15.86;77.55
71976;BME280;68326;52.124;5.424;2023-05-21T06:45:55;101879.91;;;15.93;77.81
71976;BME280;68326;52.124;5.424;2023-05-21T06:48:22;101882.28;;;15.98;77.87
71976;BME280;68326;52.124;5.424;2023-05-21T06:50:48;101875.25;;;15.98;77.49
71976;BME280;68326;52.124;5.424;2023-05-21T06:53:15;101875.41;;;15.95;77.88
71976;BME280;68326;52.124;5.424;2023-05-21T06:55:41;101876.38;;;15.94;77.29
71976;BME280;68326;52.124;5.424;2023-05-21T06:58:11;101879.06;;;15.93;78.01
71976;BME280;68326;52.124;5.424;2023-05-21T07:00:37;101876.38;;;15.94;77.87
71976;BME280;68326;52.124;5.424;2023-05-21T07:03:04;101878.81;;;15.97;78.41
71976;BME280;68326;52.124;5.424;2023-05-21T07:05:31;101878.72;;;15.99;77.99
71976;BME280;68326;52.124;5.424;2023-05-21T07:07:57;101878.72;;;15.99;78.01
71976;BME280;68326;52.124;5.424;2023-05-21T07:10:24;101872.25;;;16.04;77.75
71976;BME280;68326;52.124;5.424;2023-05-21T07:12:50;101873.91;;;16.07;78.04
71976;BME280;68326;52.124;5.424;2023-05-21T07:15:17;101867.44;;;16.13;77.66
71976;BME280;68326;52.124;5.424;2023-05-21T07:17:43;101873.09;;;16.21;77.70
71976;BME280;68326;52.124;5.424;2023-05-21T07:20:11;101870.09;;;16.27;77.29
71976;BME280;68326;52.124;5.424;2023-05-21T07:22:38;101881.09;;;16.34;76.95
71976;BME280;68326;52.124;5.424;2023-05-21T07:25:05;101882.63;;;16.38;76.16
71976;BME280;68326;52.124;5.424;2023-05-21T07:27:32;101882.69;;;16.36;77.16
71976;BME280;68326;52.124;5.424;2023-05-21T07:29:58;101871.34;;;16.36;76.73
71976;BME280;68326;52.124;5.424;2023-05-21T07:32:24;101872.72;;;16.43;76.93
71976;BME280;68326;52.124;5.424;2023-05-21T07:34:54;101877.88;;;16.59;76.90
71976;BME280;68326;52.124;5.424;2023-05-21T07:37:21;101871.53;;;16.77;76.76
71976;BME280;68326;52.124;5.424;2023-05-21T07:39:48;101877.03;;;16.88;76.29
71976;BME280;68326;52.124;5.424;2023-05-21T07:42:14;101878.44;;;16.94;75.31
71976;BME280;68326;52.124;5.424;2023-05-21T07:44:41;101875.81;;;16.94;75.59
71976;BME280;68326;52.124;5.424;2023-05-21T07:47:07;101871.78;;;17.03;75.48
71976;BME280;68326;52.124;5.424;2023-05-21T07:49:34;101872.41;;;17.06;75.19
71976;BME280;68326;52.124;5.424;2023-05-21T07:52:00;101869.78;;;17.06;75.41
71976;BME280;68326;52.124;5.424;2023-05-21T07:54:27;101876.38;;;17.14;75.29
71976;BME280;68326;52.124;5.424;2023-05-21T07:56:54;101874.66;;;17.27;75.95
71976;BME280;68326;52.124;5.424;2023-05-21T07:59:20;101866.59;;;17.30;73.54
71976;BME280;68326;52.124;5.424;2023-05-21T08:01:47;101863.00;;;17.31;74.97
71976;BME280;68326;52.124;5.424;2023-05-21T08:04:13;101850.31;;;17.38;73.79
71976;BME280;68326;52.124;5.424;2023-05-21T08:06:40;101852.38;;;17.47;72.15
71976;BME280;68326;52.124;5.424;2023-05-21T08:09:07;101850.09;;;17.55;72.14
71976;BME280;68326;52.124;5.424;2023-05-21T08:11:33;101849.91;;;17.58;72.64
71976;BME280;68326;52.124;5.424;2023-05-21T08:14:00;101847.50;;;17.68;72.49
71976;BME280;68326;52.124;5.424;2023-05-21T08:16:26;101847.72;;;17.65;72.65
71976;BME280;68326;52.124;5.424;2023-05-21T08:18:53;101839.91;;;17.63;72.66
71976;BME280;68326;52.124;5.424;2023-05-21T08:21:19;101844.34;;;17.63;73.38
71976;BME280;68326;52.124;5.424;2023-05-21T08:23:46;101840.78;;;17.64;73.37
71976;BME280;68326;52.124;5.424;2023-05-21T08:26:13;101837.63;;;17.71;73.31
71976;BME280;68326;52.124;5.424;2023-05-21T08:28:42;101848.06;;;17.87;73.25
71976;BME280;68326;52.124;5.424;2023-05-21T08:31:09;101848.09;;;18.00;72.37
71976;BME280;68326;52.124;5.424;2023-05-21T08:33:36;101846.50;;;17.98;72.58
71976;BME280;68326;52.124;5.424;2023-05-21T08:36:05;101842.59;;;17.90;73.29
71976;BME280;68326;52.124;5.424;2023-05-21T08:38:31;101852.38;;;17.88;72.73
71976;BME280;68326;52.124;5.424;2023-05-21T08:40:59;101848.44;;;17.81;72.73
71976;BME280;68326;52.124;5.424;2023-05-21T08:43:26;101844.28;;;17.91;73.91
71976;BME280;68326;52.124;5.424;2023-05-21T08:45:55;101846.84;;;18.06;72.27
71976;BME280;68326;52.124;5.424;2023-05-21T08:48:22;101846.44;;;18.12;71.78
71976;BME280;68326;52.124;5.424;2023-05-21T08:50:51;101851.63;;;18.26;72.45
71976;BME280;68326;52.124;5.424;2023-05-21T08:53:19;101842.91;;;18.39;70.52
71976;BME280;68326;52.124;5.424;2023-05-21T08:55:54;101855.16;;;18.52;70.51
71976;BME280;68326;52.124;5.424;2023-05-21T08:58:21;101847.66;;;18.72;69.64
71976;BME280;68326;52.124;5.424;2023-05-21T09:00:48;101842.94;;;18.90;70.29
71976;BME280;68326;52.124;5.424;2023-05-21T09:03:15;101854.84;;;18.95;68.62
71976;BME280;68326;52.124;5.424;2023-05-21T09:05:43;101853.91;;;18.97;68.48
71976;BME280;68326;52.124;5.424;2023-05-21T09:08:17;101855.03;;;19.18;68.88
71976;BME280;68326;52.124;5.424;2023-05-21T09:10:48;101855.41;;;19.38;68.45
71976;BME280;68326;52.124;5.424;2023-05-21T09:13:16;101853.13;;;19.57;68.37
71976;BME280;68326;52.124;5.424;2023-05-21T09:15:44;101856.06;;;19.65;66.71
71976;BME280;68326;52.124;5.424;2023-05-21T09:18:11;101852.69;;;19.63;66.07
71976;BME280;68326;52.124;5.424;2023-05-21T09:20:38;101849.44;;;19.60;67.16
71976;BME280;68326;52.124;5.424;2023-05-21T09:23:06;101842.56;;;19.70;67.81
71976;BME280;68326;52.124;5.424;2023-05-21T09:25:38;101844.53;;;19.79;66.65
71976;BME280;68326;52.124;5.424;2023-05-21T09:28:10;101834.84;;;19.91;65.67
71976;BME280;68326;52.124;5.424;2023-05-21T09:30:46;101836.84;;;20.00;65.94
71976;BME280;68326;52.124;5.424;2023-05-21T09:33:26;101846.59;;;20.11;65.32
71976;BME280;68326;52.124;5.424;2023-05-21T09:35:54;101834.22;;;20.11;64.67
71976;BME280;68326;52.124;5.424;2023-05-21T09:38:22;101838.69;;;20.22;64.51
71976;BME280;68326;52.124;5.424;2023-05-21T09:40:50;101836.78;;;20.24;64.10
71976;BME280;68326;52.124;5.424;2023-05-21T09:43:16;101826.56;;;20.20;65.11
71976;BME280;68326;52.124;5.424;2023-05-21T09:45:53;101829.81;;;20.23;64.66
71976;BME280;68326;52.124;5.424;2023-05-21T09:48:40;101821.41;;;20.29;62.91
71976;BME280;68326;52.124;5.424;2023-05-21T09:51:15;101822.72;;;20.24;63.26
71976;BME280;68326;52.124;5.424;2023-05-21T09:53:50;101819.00;;;20.37;64.24
71976;BME280;68326;52.124;5.424;2023-05-21T09:56:22;101806.66;;;20.38;63.89
71976;BME280;68326;52.124;5.424;2023-05-21T09:58:57;101811.72;;;20.52;64.71
71976;BME280;68326;52.124;5.424;2023-05-21T10:01:26;101801.28;;;20.73;63.22
71976;BME280;68326;52.124;5.424;2023-05-21T10:03:55;101805.75;;;20.95;64.00
71976;BME280;68326;52.124;5.424;2023-05-21T10:06:27;101806.84;;;21.04;63.53
71976;BME280;68326;52.124;5.424;2023-05-21T10:08:55;101801.91;;;21.00;62.23
71976;BME280;68326;52.124;5.424;2023-05-21T10:11:25;101798.88;;;20.93;62.16
71976;BME280;68326;52.124;5.424;2023-05-21T10:13:56;101793.72;;;20.91;62.81
71976;BME280;68326;52.124;5.424;2023-05-21T10:16:23;101791.81;;;20.93;61.17
71976;BME280;68326;52.124;5.424;2023-05-21T10:18:51;101788.69;;;21.00;61.48
71976;BME280;68326;52.124;5.424;2023-05-21T10:21:22;101787.81;;;21.10;63.07
71976;BME280;68326;52.124;5.424;2023-05-21T10:23:49;101787.69;;;21.23;62.49
71976;BME280;68326;52.124;5.424;2023-05-21T10:26:18;101794.13;;;21.42;61.29
71976;BME280;68326;52.124;5.424;2023-05-21T10:28:49;101781.84;;;21.52;60.19
71976;BME280;68326;52.124;5.424;2023-05-21T10:31:17;101779.31;;;21.50;59.95
71976;BME280;68326;52.124;5.424;2023-05-21T10:33:43;101770.47;;;21.61;60.01
71976;BME280;68326;52.124;5.424;2023-05-21T10:36:10;101780.53;;;21.78;62.10
71976;BME280;68326;52.124;5.424;2023-05-21T10:38:37;101771.50;;;22.02;59.57
71976;BME280;68326;52.124;5.424;2023-05-21T10:41:04;101768.88;;;21.91;59.60
71976;BME280;68326;52.124;5.424;2023-05-21T10:46:35;101762.94;;;22.19;61.18
71976;BME280;68326;52.124;5.424;2023-05-21T10:49:36;101769.16;;;22.51;60.55
71976;BME280;68326;52.124;5.424;2023-05-21T10:55:34;101768.16;;;22.83;59.81
71976;BME280;68326;52.124;5.424;2023-05-21T10:58:15;101774.75;;;22.98;59.98
71976;BME280;68326;52.124;5.424;2023-05-21T11:00:46;101761.22;;;22.60;57.29
71976;BME280;68326;52.124;5.424;2023-05-21T11:03:13;101759.91;;;22.45;58.60
71976;BME280;68326;52.124;5.424;2023-05-21T11:05:50;101768.94;;;22.64;57.28
71976;BME280;68326;52.124;5.424;2023-05-21T11:08:21;101771.03;;;22.70;57.95
71976;BME280;68326;52.124;5.424;2023-05-21T11:10:52;101767.75;;;22.97;57.14
71976;BME280;68326;52.124;5.424;2023-05-21T11:13:20;101770.00;;;22.61;57.54
71976;BME280;68326;52.124;5.424;2023-05-21T11:21:17;101762.09;;;22.71;57.90
71976;BME280;68326;52.124;5.424;2023-05-21T11:26:21;101754.66;;;22.65;56.77
71976;BME280;68326;52.124;5.424;2023-05-21T11:29:09;101752.47;;;22.70;57.75
71976;BME280;68326;52.124;5.424;2023-05-21T11:31:36;101746.19;;;22.71;57.10
71976;BME280;68326;52.124;5.424;2023-05-21T11:34:19;101741.75;;;22.91;57.99
71976;BME280;68326;52.124;5.424;2023-05-21T11:39:44;101741.16;;;22.77;57.76
71976;BME280;68326;52.124;5.424;2023-05-21T11:42:11;101727.94;;;22.87;58.20
71976;BME280;68326;52.124;5.424;2023-05-21T11:44:47;101726.97;;;22.98;57.59
71976;BME280;68326;52.124;5.424;2023-05-21T11:47:16;101731.00;;;22.92;56.63
71976;BME280;68326;52.124;5.424;2023-05-21T11:49:44;101720.44;;;23.02;56.99
71976;BME280;68326;52.124;5.424;2023-05-21T11:52:12;101724.78;;;23.13;57.49
71976;BME280;68326;52.124;5.424;2023-05-21T11:54:43;101720.75;;;23.28;56.34
71976;BME280;68326;52.124;5.424;2023-05-21T11:57:18;101714.75;;;23.36;56.91
71976;BME280;68326;52.124;5.424;2023-05-21T11:59:45;101731.94;;;23.32;56.56
71976;BME280;68326;52.124;5.424;2023-05-21T12:02:16;101717.97;;;23.30;55.76
71976;BME280;68326;52.124;5.424;2023-05-21T12:04:45;101715.84;;;23.14;58.48
71976;BME280;68326;52.124;5.424;2023-05-21T12:07:13;101712.34;;;23.04;56.89
71976;BME280;68326;52.124;5.424;2023-05-21T12:09:45;101711.38;;;23.05;57.32
71976;BME280;68326;52.124;5.424;2023-05-21T12:12:17;101712.41;;;22.83;56.83
71976;BME280;68326;52.124;5.424;2023-05-21T12:14:49;101704.56;;;22.71;58.31
71976;BME280;68326;52.124;5.424;2023-05-21T12:17:18;101703.59;;;22.82;56.68
71976;BME280;68326;52.124;5.424;2023-05-21T12:19:45;101707.81;;;22.85;56.78
71976;BME280;68326;52.124;5.424;2023-05-21T12:22:13;101702.09;;;22.89;57.37
71976;BME280;68326;52.124;5.424;2023-05-21T12:24:43;101702.63;;;22.83;58.18
71976;BME280;68326;52.124;5.424;2023-05-21T12:27:11;101691.72;;;22.86;58.31
71976;BME280;68326;52.124;5.424;2023-05-21T12:29:40;101684.06;;;22.83;58.43
71976;BME280;68326;52.124;5.424;2023-05-21T12:32:09;101693.28;;;22.79;59.78
71976;BME280;68326;52.124;5.424;2023-05-21T12:34:50;101688.81;;;22.89;58.10
71976;BME280;68326;52.124;5.424;2023-05-21T12:37:26;101681.38;;;22.64;58.15
71976;BME280;68326;52.124;5.424;2023-05-21T12:39:54;101686.63;;;22.44;59.36
71976;BME280;68326;52.124;5.424;2023-05-21T12:42:30;101684.56;;;22.57;58.88
71976;BME280;68326;52.124;5.424;2023-05-21T12:45:06;101677.88;;;22.73;58.98
71976;BME280;68326;52.124;5.424;2023-05-21T12:47:33;101688.88;;;22.58;58.43
71976;BME280;68326;52.124;5.424;2023-05-21T12:50:06;101688.88;;;22.58;59.33
71976;BME280;68326;52.124;5.424;2023-05-21T12:52:33;101689.06;;;22.76;59.64
71976;BME280;68326;52.124;5.424;2023-05-21T12:54:59;101674.31;;;22.93;59.37
71976;BME280;68326;52.124;5.424;2023-05-21T12:57:34;101678.91;;;22.91;58.00
71976;BME280;68326;52.124;5.424;2023-05-21T13:00:02;101679.25;;;22.67;58.70
71976;BME280;68326;52.124;5.424;2023-05-21T13:02:34;101685.38;;;22.58;57.84
71976;BME280;68326;52.124;5.424;2023-05-21T13:05:03;101686.03;;;22.41;59.03
71976;BME280;68326;52.124;5.424;2023-05-21T13:07:30;101696.13;;;22.47;60.44
71976;BME280;68326;52.124;5.424;2023-05-21T13:09:59;101689.13;;;22.46;58.93
71976;BME280;68326;52.124;5.424;2023-05-21T13:12:27;101682.31;;;22.63;59.12